Time;durP1;ratioP1;P1;durP2;ratioP2;P2;SDS_P1;SDS_P2;PMS_P1;PMS_P2;Temp;Humidity;BMP_temperature;BMP_pressure;BME280_temperature;BME280_humidity;BME280_pressure;Samples;Min_cycle;Max_cycle;Signal;HPM_P1;HPM_P2
2022/05/24 00:00:09;;;;;;;13.02;11.77;;;;;;;;;;5049721;28;20493;-84
2022/05/24 00:02:35;;;;;;;12.40;11.20;;;;;;;;;;5052709;28;20429;-86
2022/05/24 00:05:01;;;;;;;11.85;10.75;;;;;;;;;;5051515;28;20536;-85
2022/05/24 00:07:30;;;;;;;11.70;10.68;;;;;;;;;;5049897;28;20425;-85
2022/05/24 00:09:56;;;;;;;12.95;11.80;;;;;;;;;;5051432;28;20451;-86
2022/05/24 00:12:22;;;;;;;12.20;11.10;;;;;;;;;;5054020;28;20426;-86
2022/05/24 00:17:33;;;;;;;10.95;9.95;;;;;;;;;;5054055;28;21514;-84
2022/05/24 00:20:00;;;;;;;11.15;10.07;;;;;;;;;;5053068;28;20430;-85
2022/05/24 00:22:27;;;;;;;10.93;9.82;;;;;;;;;;5045608;28;20425;-86
2022/05/24 00:24:56;;;;;;;11.60;9.98;;;;;;;;;;5051036;28;20795;-88
2022/05/24 00:27:23;;;;;;;11.13;9.98;;;;;;;;;;5052519;28;20430;-87
2022/05/24 00:29:49;;;;;;;12.18;11.07;;;;;;;;;;5049396;28;20933;-85
2022/05/24 00:32:15;;;;;;;12.80;11.60;;;;;;;;;;5053277;28;20577;-86
2022/05/24 00:34:41;;;;;;;12.93;11.43;;;;;;;;;;5052747;28;20854;-85
2022/05/24 00:37:08;;;;;;;15.10;11.60;;;;;;;;;;5054499;28;20414;-89
2022/05/24 00:39:34;;;;;;;13.75;12.15;;;;;;;;;;5054784;28;20467;-84
2022/05/24 00:42:04;;;;;;;14.35;12.80;;;;;;;;;;5053301;28;20440;-84
2022/05/24 00:44:32;;;;;;;16.90;13.52;;;;;;;;;;5054174;28;20437;-85
2022/05/24 00:46:59;;;;;;;15.63;14.05;;;;;;;;;;5057310;28;20459;-83
2022/05/24 00:49:28;;;;;;;17.50;14.20;;;;;;;;;;5085315;23;20438;-82
2022/05/24 00:51:55;;;;;;;16.52;14.82;;;;;;;;;;5041428;28;20471;-82
2022/05/24 00:54:21;;;;;;;17.83;16.02;;;;;;;;;;5042248;28;20437;-82
2022/05/24 00:56:51;;;;;;;18.70;16.10;;;;;;;;;;5042348;28;20483;-83
2022/05/24 00:59:27;;;;;;;18.73;16.73;;;;;;;;;;5040194;28;20469;-83
2022/05/24 01:01:53;;;;;;;18.08;16.27;;;;;;;;;;5040575;28;20448;-81
2022/05/24 01:04:20;;;;;;;18.60;16.65;;;;;;;;;;5041088;28;20428;-82
2022/05/24 01:06:47;;;;;;;16.70;15.00;;;;;;;;;;5039696;28;20462;-82
2022/05/24 01:09:16;;;;;;;17.40;15.60;;;;;;;;;;5043308;28;20422;-82
2022/05/24 01:11:43;;;;;;;20.30;16.80;;;;;;;;;;5041008;28;20479;-82
2022/05/24 01:14:11;;;;;;;18.45;16.55;;;;;;;;;;5037608;28;20425;-82
2022/05/24 01:16:39;;;;;;;18.57;16.73;;;;;;;;;;5042235;28;20812;-81
2022/05/24 01:19:08;;;;;;;18.10;16.30;;;;;;;;;;5037426;28;20427;-84
2022/05/24 01:21:34;;;;;;;20.38;16.83;;;;;;;;;;5042958;28;20487;-81
2022/05/24 01:24:05;;;;;;;19.35;16.33;;;;;;;;;;5044724;28;20427;-81
2022/05/24 01:26:41;;;;;;;18.03;16.13;;;;;;;;;;5040928;28;20505;-83
2022/05/24 01:29:08;;;;;;;18.30;16.40;;;;;;;;;;5037366;28;20442;-82
2022/05/24 01:36:59;;;;;;;17.92;15.88;;;;;;;;;;5037549;28;20509;-82
2022/05/24 01:39:25;;;;;;;19.85;16.65;;;;;;;;;;5037914;28;20434;-82
2022/05/24 01:41:53;;;;;;;16.50;14.40;;;;;;;;;;5039172;28;20437;-82
2022/05/24 01:44:23;;;;;;;17.02;15.23;;;;;;;;;;5038503;28;20430;-83
2022/05/24 01:46:49;;;;;;;14.70;13.20;;;;;;;;;;5038116;28;20431;-81
2022/05/24 01:49:17;;;;;;;14.50;13.00;;;;;;;;;;5044594;28;20919;-80
2022/05/24 01:51:46;;;;;;;15.90;14.20;;;;;;;;;;5040286;28;20411;-82
2022/05/24 01:54:13;;;;;;;14.70;13.10;;;;;;;;;;5040300;28;20431;-82
2022/05/24 01:56:43;;;;;;;15.75;12.50;;;;;;;;;;5043346;28;20437;-82
2022/05/24 01:59:11;;;;;;;16.40;12.77;;;;;;;;;;5036677;28;20519;-82
2022/05/24 02:01:41;;;;;;;14.93;12.98;;;;;;;;;;5038146;28;20436;-83
2022/05/24 02:04:07;;;;;;;14.82;12.40;;;;;;;;;;5036539;28;20506;-82
2022/05/24 02:06:34;;;;;;;14.88;12.50;;;;;;;;;;5041844;28;20551;-83
2022/05/24 02:09:00;;;;;;;13.93;12.18;;;;;;;;;;5038314;28;20427;-83
2022/05/24 02:11:28;;;;;;;12.48;11.18;;;;;;;;;;5037515;28;21125;-83
2022/05/24 02:13:56;;;;;;;12.68;10.75;;;;;;;;;;5035584;28;20454;-82
2022/05/24 02:16:26;;;;;;;14.40;10.23;;;;;;;;;;5038938;28;20571;-82
2022/05/24 02:18:54;;;;;;;10.77;9.40;;;;;;;;;;5040506;28;20427;-82
2022/05/24 02:21:21;;;;;;;12.63;9.13;;;;;;;;;;5038845;28;20441;-81
2022/05/24 02:23:49;;;;;;;10.18;8.20;;;;;;;;;;5040750;28;20426;-82
2022/05/24 02:26:16;;;;;;;11.32;9.50;;;;;;;;;;5038560;28;20431;-82
2022/05/24 02:28:42;;;;;;;13.32;8.77;;;;;;;;;;5040534;28;20429;-82
2022/05/24 02:31:11;;;;;;;8.95;7.43;;;;;;;;;;5036128;28;20636;-83
2022/05/24 02:33:38;;;;;;;9.10;7.80;;;;;;;;;;5035022;28;20422;-81
2022/05/24 02:36:06;;;;;;;8.97;6.83;;;;;;;;;;5035809;28;20489;-81
2022/05/24 02:38:32;;;;;;;9.05;7.20;;;;;;;;;;5039715;28;20429;-82
2022/05/24 02:43:43;;;;;;;10.23;7.10;;;;;;;;;;5037495;28;20485;-83
2022/05/24 02:46:09;;;;;;;10.47;8.20;;;;;;;;;;5043653;28;20421;-81
2022/05/24 02:48:36;;;;;;;12.45;8.18;;;;;;;;;;5039951;28;20427;-82
2022/05/24 02:51:06;;;;;;;11.03;7.20;;;;;;;;;;5041459;28;20434;-82
2022/05/24 02:53:32;;;;;;;10.65;6.90;;;;;;;;;;5034261;28;21599;-81
2022/05/24 02:56:01;;;;;;;14.27;8.88;;;;;;;;;;5042011;28;20437;-83
2022/05/24 02:58:27;;;;;;;14.40;12.60;;;;;;;;;;5038824;28;20422;-82
2022/05/24 03:00:53;;;;;;;18.27;14.73;;;;;;;;;;5037036;28;20435;-81
2022/05/24 03:03:20;;;;;;;11.23;9.50;;;;;;;;;;5035326;28;20862;-83
2022/05/24 03:05:46;;;;;;;9.43;7.57;;;;;;;;;;5037862;28;20432;-82
2022/05/24 03:10:58;;;;;;;13.10;8.25;;;;;;;;;;5033583;28;20943;-81
2022/05/24 03:16:09;;;;;;;8.10;7.20;;;;;;;;;;5038404;28;20455;-82
2022/05/24 03:18:35;;;;;;;8.65;7.38;;;;;;;;;;5035297;28;20410;-83
2022/05/24 03:21:01;;;;;;;8.98;7.72;;;;;;;;;;5040145;28;20438;-83
2022/05/24 03:23:29;;;;;;;11.20;8.23;;;;;;;;;;5042581;28;20423;-82
2022/05/24 03:25:55;;;;;;;11.80;8.63;;;;;;;;;;5037952;28;20434;-83
2022/05/24 03:28:21;;;;;;;11.52;9.18;;;;;;;;;;5038837;28;20426;-82
2022/05/24 03:30:48;;;;;;;12.88;9.38;;;;;;;;;;5037941;28;20473;-83
2022/05/24 03:33:14;;;;;;;12.15;8.55;;;;;;;;;;5036100;28;21223;-81
2022/05/24 03:35:41;;;;;;;12.88;8.75;;;;;;;;;;5036877;28;20497;-82
2022/05/24 03:38:07;;;;;;;14.30;9.60;;;;;;;;;;5036738;28;20789;-82
2022/05/24 03:40:35;;;;;;;10.23;9.20;;;;;;;;;;5039637;28;20469;-83
2022/05/24 03:43:02;;;;;;;10.35;8.85;;;;;;;;;;5038013;28;20427;-82
2022/05/24 03:45:28;;;;;;;14.68;10.50;;;;;;;;;;5036153;28;20443;-83
2022/05/24 03:47:55;;;;;;;12.02;10.30;;;;;;;;;;5036716;28;20414;-81
2022/05/24 03:50:22;;;;;;;11.07;9.60;;;;;;;;;;5041077;28;20430;-81
2022/05/24 03:52:49;;;;;;;10.32;9.13;;;;;;;;;;5034916;28;20418;-82
2022/05/24 03:55:15;;;;;;;11.40;9.60;;;;;;;;;;5041721;28;20430;-81
2022/05/24 03:58:01;;;;;;;13.10;9.80;;;;;;;;;;5040885;28;20409;-81
2022/05/24 04:00:29;;;;;;;10.70;9.57;;;;;;;;;;5034992;28;20518;-81
2022/05/24 04:02:55;;;;;;;10.45;9.45;;;;;;;;;;5038338;28;20415;-82
2022/05/24 04:05:22;;;;;;;11.43;10.33;;;;;;;;;;5039842;28;20435;-82
2022/05/24 04:07:49;;;;;;;14.13;10.88;;;;;;;;;;5034311;28;20491;-82
2022/05/24 04:10:16;;;;;;;11.75;10.55;;;;;;;;;;5037400;28;20427;-81
2022/05/24 04:12:44;;;;;;;12.30;11.00;;;;;;;;;;5038133;28;20413;-83
2022/05/24 04:15:10;;;;;;;13.55;11.18;;;;;;;;;;5040398;28;20421;-82
2022/05/24 04:17:37;;;;;;;12.88;11.50;;;;;;;;;;5035158;28;20417;-82
2022/05/24 04:20:03;;;;;;;11.68;9.80;;;;;;;;;;5038894;28;20434;-81
2022/05/24 04:22:30;;;;;;;16.13;10.95;;;;;;;;;;5036489;28;21145;-81
2022/05/24 04:24:56;;;;;;;16.55;11.40;;;;;;;;;;5041542;28;20419;-82
2022/05/24 04:27:23;;;;;;;13.88;12.38;;;;;;;;;;5035097;28;20460;-81
2022/05/24 04:29:52;;;;;;;12.30;11.00;;;;;;;;;;5043021;28;20428;-82
2022/05/24 04:32:18;;;;;;;20.70;11.73;;;;;;;;;;5037617;28;20951;-81
2022/05/24 04:34:44;;;;;;;13.50;12.10;;;;;;;;;;5040395;28;20459;-81
2022/05/24 04:37:11;;;;;;;13.40;11.43;;;;;;;;;;5040476;28;20411;-81
2022/05/24 04:39:37;;;;;;;14.00;12.50;;;;;;;;;;5041873;28;20434;-80
2022/05/24 04:42:18;;;;;;;15.90;13.40;;;;;;;;;;5037274;28;20409;-81
2022/05/24 04:44:45;;;;;;;14.82;13.18;;;;;;;;;;5043626;28;20430;-81
2022/05/24 04:47:13;;;;;;;15.85;14.15;;;;;;;;;;5040562;28;20827;-83
2022/05/24 04:49:40;;;;;;;16.35;14.00;;;;;;;;;;5043871;28;20413;-82
2022/05/24 04:52:07;;;;;;;18.45;14.30;;;;;;;;;;5045885;28;20417;-80
2022/05/24 04:54:34;;;;;;;19.30;15.85;;;;;;;;;;5041451;28;21127;-82
2022/05/24 04:57:00;;;;;;;16.38;14.50;;;;;;;;;;5039153;28;20441;-83
2022/05/24 04:59:26;;;;;;;17.23;15.43;;;;;;;;;;5042428;28;20484;-82
2022/05/24 05:01:52;;;;;;;18.45;16.27;;;;;;;;;;5041623;28;21285;-82
2022/05/24 05:04:20;;;;;;;20.60;15.73;;;;;;;;;;5043514;28;20438;-81
2022/05/24 05:06:47;;;;;;;17.25;15.43;;;;;;;;;;5043255;28;20512;-81
2022/05/24 05:09:14;;;;;;;18.42;16.00;;;;;;;;;;5043727;28;20440;-82
2022/05/24 05:11:40;;;;;;;19.17;15.63;;;;;;;;;;5044413;28;20455;-81
2022/05/24 05:14:08;;;;;;;17.52;15.70;;;;;;;;;;5040706;28;20926;-83
2022/05/24 05:16:35;;;;;;;17.52;14.82;;;;;;;;;;5041616;28;20901;-81
2022/05/24 05:19:02;;;;;;;19.73;15.80;;;;;;;;;;5042973;28;20527;-82
2022/05/24 05:21:31;;;;;;;19.48;16.27;;;;;;;;;;5036282;28;20448;-83
2022/05/24 05:23:57;;;;;;;17.95;15.50;;;;;;;;;;5041815;28;20459;-82
2022/05/24 05:26:23;;;;;;;19.20;16.90;;;;;;;;;;5036783;28;20930;-82
2022/05/24 05:28:50;;;;;;;19.17;17.17;;;;;;;;;;5027319;28;20489;-83
2022/05/24 05:31:22;;;;;;;21.00;16.95;;;;;;;;;;5029464;28;20491;-82
2022/05/24 05:33:49;;;;;;;21.50;18.13;;;;;;;;;;5041462;28;20481;-82
2022/05/24 05:36:15;;;;;;;22.98;18.50;;;;;;;;;;5042036;28;20472;-81
2022/05/24 05:38:45;;;;;;;23.00;19.58;;;;;;;;;;5045366;28;20423;-83
2022/05/24 05:41:12;;;;;;;21.70;18.63;;;;;;;;;;5045814;28;20425;-83
2022/05/24 05:43:38;;;;;;;22.70;19.77;;;;;;;;;;5043896;28;20448;-82
2022/05/24 05:46:04;;;;;;;24.40;20.45;;;;;;;;;;5046243;28;20431;-82
2022/05/24 05:48:31;;;;;;;24.90;20.95;;;;;;;;;;5044887;28;20479;-83
2022/05/24 05:50:57;;;;;;;24.25;20.77;;;;;;;;;;5042736;28;20477;-83
2022/05/24 05:53:24;;;;;;;23.90;19.67;;;;;;;;;;5044333;28;20438;-82
2022/05/24 05:55:51;;;;;;;23.60;20.80;;;;;;;;;;5041204;28;20455;-81
2022/05/24 05:58:17;;;;;;;25.60;21.73;;;;;;;;;;5043529;28;20411;-82
2022/05/24 06:00:44;;;;;;;24.33;20.08;;;;;;;;;;5044328;28;20485;-81
2022/05/24 06:03:10;;;;;;;24.67;21.40;;;;;;;;;;5045744;28;20476;-83
2022/05/24 06:05:36;;;;;;;23.43;19.90;;;;;;;;;;5045110;28;20480;-82
2022/05/24 06:08:03;;;;;;;25.40;21.30;;;;;;;;;;5043617;28;20445;-82
2022/05/24 06:10:30;;;;;;;25.50;22.30;;;;;;;;;;5045338;28;20915;-82
2022/05/24 06:12:57;;;;;;;24.88;21.98;;;;;;;;;;5043518;28;20417;-83
2022/05/24 06:15:25;;;;;;;28.65;22.10;;;;;;;;;;5043572;28;20527;-83
2022/05/24 06:17:52;;;;;;;25.02;21.20;;;;;;;;;;5045020;28;20414;-82
2022/05/24 06:20:19;;;;;;;25.63;21.70;;;;;;;;;;5046205;28;20399;-82
2022/05/24 06:22:46;;;;;;;25.97;23.07;;;;;;;;;;5044951;28;20417;-82
2022/05/24 06:25:13;;;;;;;27.87;24.87;;;;;;;;;;5045176;28;20419;-83
2022/05/24 06:27:39;;;;;;;27.70;23.35;;;;;;;;;;5044999;28;20431;-82
2022/05/24 06:30:08;;;;;;;28.48;25.38;;;;;;;;;;5040897;28;20488;-83
2022/05/24 06:32:34;;;;;;;30.10;24.80;;;;;;;;;;5044786;28;20442;-84
2022/05/24 06:35:01;;;;;;;27.70;24.35;;;;;;;;;;5043300;28;20449;-83
2022/05/24 06:37:27;;;;;;;33.17;26.20;;;;;;;;;;5045589;28;20415;-83
2022/05/24 06:39:53;;;;;;;30.23;26.52;;;;;;;;;;5043861;28;20419;-82
2022/05/24 06:42:20;;;;;;;33.42;26.80;;;;;;;;;;5044799;28;20779;-82
2022/05/24 06:44:46;;;;;;;32.13;26.77;;;;;;;;;;5041968;28;20435;-82
2022/05/24 06:47:13;;;;;;;33.58;28.33;;;;;;;;;;5044312;28;20440;-83
2022/05/24 06:49:40;;;;;;;33.33;27.58;;;;;;;;;;5046164;28;20831;-84
2022/05/24 06:52:06;;;;;;;33.80;27.50;;;;;;;;;;5044294;28;20415;-81
2022/05/24 06:57:07;;;;;;;34.58;29.77;;;;;;;;;;5034078;28;20399;-85
2022/05/24 07:02:28;;;;;;;35.15;29.75;;;;;;;;;;5037586;28;20439;-86
2022/05/24 07:04:58;;;;;;;33.30;28.25;;;;;;;;;;5036591;28;20438;-85
2022/05/24 07:07:25;;;;;;;36.30;30.23;;;;;;;;;;5033936;28;20778;-88
2022/05/24 07:09:51;;;;;;;33.30;28.50;;;;;;;;;;5036559;28;20428;-85
2022/05/24 07:12:18;;;;;;;34.08;27.05;;;;;;;;;;5036305;28;20436;-86
2022/05/24 07:14:44;;;;;;;32.25;27.77;;;;;;;;;;5036924;28;20417;-86
2022/05/24 07:17:10;;;;;;;35.00;29.25;;;;;;;;;;5036550;28;20419;-86
2022/05/24 07:19:39;;;;;;;36.47;29.27;;;;;;;;;;5035210;28;20437;-85
2022/05/24 07:22:05;;;;;;;37.47;29.77;;;;;;;;;;5036236;28;20440;-85
2022/05/24 07:24:31;;;;;;;35.85;28.45;;;;;;;;;;5037606;28;20942;-87
2022/05/24 07:26:58;;;;;;;33.60;28.30;;;;;;;;;;5034623;28;20433;-87
2022/05/24 07:29:24;;;;;;;31.73;26.70;;;;;;;;;;5036671;28;20979;-87
2022/05/24 07:31:51;;;;;;;31.70;27.42;;;;;;;;;;5035575;28;20449;-87
2022/05/24 07:34:17;;;;;;;32.42;26.30;;;;;;;;;;5039391;28;20514;-87
2022/05/24 07:36:44;;;;;;;30.48;26.15;;;;;;;;;;5035793;28;20440;-87
2022/05/24 07:39:11;;;;;;;33.38;27.52;;;;;;;;;;5034253;28;20466;-85
2022/05/24 07:47:06;;;;;;;33.33;27.05;;;;;;;;;;5036375;28;20423;-87
2022/05/24 07:49:33;;;;;;;33.10;29.00;;;;;;;;;;5036492;28;20440;-88
2022/05/24 07:52:00;;;;;;;34.95;29.23;;;;;;;;;;5035152;28;20407;-85
2022/05/24 07:54:27;;;;;;;38.60;31.23;;;;;;;;;;5033680;28;20495;-86
2022/05/24 07:56:53;;;;;;;39.78;32.53;;;;;;;;;;5035885;28;20434;-87
2022/05/24 07:59:19;;;;;;;40.40;32.47;;;;;;;;;;5035920;28;20418;-86
2022/05/24 08:01:46;;;;;;;42.75;35.50;;;;;;;;;;5035712;28;20414;-83
2022/05/24 08:04:12;;;;;;;44.90;37.38;;;;;;;;;;5041302;28;20537;-83
2022/05/24 08:06:38;;;;;;;45.57;36.83;;;;;;;;;;5040556;28;20924;-85
2022/05/24 08:09:06;;;;;;;47.40;38.58;;;;;;;;;;5036137;28;20455;-87
2022/05/24 08:11:33;;;;;;;47.22;39.28;;;;;;;;;;5039848;28;20505;-86
2022/05/24 08:14:02;;;;;;;52.95;41.67;;;;;;;;;;5037795;28;20420;-85
2022/05/24 08:16:28;;;;;;;55.72;41.13;;;;;;;;;;5041408;28;20421;-83
2022/05/24 08:18:55;;;;;;;47.30;38.50;;;;;;;;;;5042484;28;20419;-86
2022/05/24 08:21:21;;;;;;;47.58;40.25;;;;;;;;;;5040199;28;20426;-84
2022/05/24 08:23:47;;;;;;;47.47;39.58;;;;;;;;;;5038950;28;20426;-84
2022/05/24 08:26:16;;;;;;;53.83;40.55;;;;;;;;;;5040394;28;20412;-84
2022/05/24 08:28:43;;;;;;;48.95;39.58;;;;;;;;;;5040882;28;20448;-85
2022/05/24 08:31:09;;;;;;;48.08;37.35;;;;;;;;;;5041673;28;20412;-85
2022/05/24 08:33:36;;;;;;;50.47;38.70;;;;;;;;;;5038574;28;20408;-86
2022/05/24 08:36:02;;;;;;;44.70;36.30;;;;;;;;;;5041128;28;20432;-87
2022/05/24 08:38:29;;;;;;;44.03;35.90;;;;;;;;;;5037832;28;21187;-88
2022/05/24 08:40:56;;;;;;;36.13;29.40;;;;;;;;;;5035723;28;20452;-88
2022/05/24 08:43:29;;;;;;;41.47;30.38;;;;;;;;;;5041376;28;20506;-89
2022/05/24 08:48:44;;;;;;;37.00;29.13;;;;;;;;;;5034487;28;20440;-87
2022/05/24 08:51:13;;;;;;;38.05;29.73;;;;;;;;;;5039456;28;20850;-86
2022/05/24 08:53:43;;;;;;;35.50;28.15;;;;;;;;;;5040493;28;20486;-87
2022/05/24 08:56:12;;;;;;;30.13;25.27;;;;;;;;;;5038011;28;20440;-86
2022/05/24 08:58:42;;;;;;;31.73;26.98;;;;;;;;;;5041884;28;20416;-85
2022/05/24 09:01:13;;;;;;;35.45;29.35;;;;;;;;;;5042052;28;20877;-86
2022/05/24 09:03:39;;;;;;;36.00;29.02;;;;;;;;;;5043018;28;20422;-86
2022/05/24 09:06:10;;;;;;;36.25;29.75;;;;;;;;;;5038806;28;20535;-86
2022/05/24 09:08:41;;;;;;;34.15;27.50;;;;;;;;;;5035056;28;20428;-85
2022/05/24 09:11:09;;;;;;;37.28;28.63;;;;;;;;;;5036859;28;20416;-84
2022/05/24 09:13:48;;;;;;;33.15;24.98;;;;;;;;;;5037802;28;20442;-85
2022/05/24 09:16:17;;;;;;;30.40;24.80;;;;;;;;;;5041116;28;20431;-85
2022/05/24 09:18:46;;;;;;;31.50;23.87;;;;;;;;;;5041417;28;20411;-85
2022/05/24 09:21:17;;;;;;;27.83;22.00;;;;;;;;;;5040983;28;20411;-85
2022/05/24 09:23:46;;;;;;;31.70;21.47;;;;;;;;;;5040823;28;20420;-86
2022/05/24 09:26:13;;;;;;;23.23;20.70;;;;;;;;;;5040144;28;20411;-85
2022/05/24 09:28:50;;;;;;;24.07;20.50;;;;;;;;;;5040802;28;20427;-88
2022/05/24 09:31:25;;;;;;;23.77;21.27;;;;;;;;;;5037494;28;20445;-85
2022/05/24 09:33:56;;;;;;;25.58;21.25;;;;;;;;;;5038882;28;20427;-86
2022/05/24 09:36:29;;;;;;;22.17;19.77;;;;;;;;;;5039892;28;20460;-86
2022/05/24 09:38:56;;;;;;;24.23;19.90;;;;;;;;;;5037895;28;20413;-87
2022/05/24 09:41:23;;;;;;;29.25;20.42;;;;;;;;;;5043163;28;20427;-85
2022/05/24 09:44:00;;;;;;;24.20;19.52;;;;;;;;;;5040146;28;20430;-86
2022/05/24 09:46:27;;;;;;;24.38;20.67;;;;;;;;;;5040125;28;20483;-86
2022/05/24 09:48:56;;;;;;;30.50;20.33;;;;;;;;;;5038292;28;20419;-85
2022/05/24 09:51:24;;;;;;;22.08;19.67;;;;;;;;;;5039181;28;20426;-85
2022/05/24 09:53:52;;;;;;;24.00;20.77;;;;;;;;;;5039988;28;20419;-86
2022/05/24 09:56:19;;;;;;;26.73;20.95;;;;;;;;;;5037147;28;20415;-88
2022/05/24 09:58:51;;;;;;;26.55;19.38;;;;;;;;;;5037870;28;20411;-85
2022/05/24 10:01:31;;;;;;;21.50;19.15;;;;;;;;;;5038251;28;20434;-86
2022/05/24 10:04:10;;;;;;;23.20;19.55;;;;;;;;;;5039901;28;20968;-85
2022/05/24 10:06:36;;;;;;;24.45;18.75;;;;;;;;;;5038197;28;20431;-88
2022/05/24 10:09:03;;;;;;;21.80;18.30;;;;;;;;;;5040434;28;20421;-86
2022/05/24 10:11:31;;;;;;;20.33;18.02;;;;;;;;;;5040082;28;20420;-86
2022/05/24 10:14:08;;;;;;;23.83;18.48;;;;;;;;;;5038736;28;20428;-86
2022/05/24 10:16:37;;;;;;;23.83;19.77;;;;;;;;;;5040732;28;20458;-86
2022/05/24 10:19:19;;;;;;;24.50;20.85;;;;;;;;;;5039774;28;20436;-85
2022/05/24 10:21:49;;;;;;;23.95;20.60;;;;;;;;;;5037142;28;20456;-86
2022/05/24 10:24:24;;;;;;;25.08;20.90;;;;;;;;;;5038233;28;20451;-85
2022/05/24 10:26:56;;;;;;;28.73;20.98;;;;;;;;;;5035295;28;20443;-88
2022/05/24 10:29:28;;;;;;;24.60;20.95;;;;;;;;;;5035393;28;20455;-87
2022/05/24 10:31:57;;;;;;;26.65;21.95;;;;;;;;;;5034931;28;20412;-86
2022/05/24 10:40:08;;;;;;;22.17;19.10;;;;;;;;;;5038696;28;20414;-86
2022/05/24 10:42:40;;;;;;;20.52;18.33;;;;;;;;;;5038372;28;20446;-88
2022/05/24 10:45:09;;;;;;;18.80;16.40;;;;;;;;;;5038892;28;20454;-87
2022/05/24 10:47:40;;;;;;;20.67;16.93;;;;;;;;;;5039329;28;20958;-87
2022/05/24 10:50:09;;;;;;;17.58;14.82;;;;;;;;;;5036538;28;20427;-85
2022/05/24 10:52:37;;;;;;;19.48;15.68;;;;;;;;;;5036230;28;20443;-88
2022/05/24 10:55:06;;;;;;;19.00;15.75;;;;;;;;;;5039048;28;20448;-86
2022/05/24 10:57:34;;;;;;;14.68;12.90;;;;;;;;;;5039158;28;20447;-86
2022/05/24 11:00:04;;;;;;;15.00;13.50;;;;;;;;;;5039795;28;20411;-86
2022/05/24 11:02:36;;;;;;;17.85;14.15;;;;;;;;;;5039209;28;20411;-87
2022/05/24 11:05:07;;;;;;;17.13;15.48;;;;;;;;;;5038816;28;20911;-87
2022/05/24 11:07:34;;;;;;;17.98;15.70;;;;;;;;;;5040303;28;20446;-87
2022/05/24 11:10:06;;;;;;;19.00;15.93;;;;;;;;;;5036504;28;20439;-88
2022/05/24 11:12:36;;;;;;;18.90;14.85;;;;;;;;;;5034598;28;20464;-87
2022/05/24 11:15:05;;;;;;;19.58;15.60;;;;;;;;;;5038922;28;20417;-86
2022/05/24 11:17:32;;;;;;;17.42;15.02;;;;;;;;;;5039831;28;20419;-86
2022/05/24 11:19:59;;;;;;;16.42;13.55;;;;;;;;;;5038833;28;20426;-88
2022/05/24 11:22:32;;;;;;;15.27;13.77;;;;;;;;;;5036475;28;20414;-86
2022/05/24 11:25:02;;;;;;;13.98;12.18;;;;;;;;;;5037888;28;20440;-87
2022/05/24 11:27:30;;;;;;;13.60;12.20;;;;;;;;;;5040040;28;20426;-86
2022/05/24 11:29:58;;;;;;;16.02;12.20;;;;;;;;;;5037495;28;20424;-87
2022/05/24 11:32:33;;;;;;;12.75;10.48;;;;;;;;;;5038290;28;20416;-87
2022/05/24 11:35:01;;;;;;;14.77;10.57;;;;;;;;;;5039105;28;20433;-87
2022/05/24 11:37:30;;;;;;;12.43;9.48;;;;;;;;;;5035185;28;20493;-86
2022/05/24 11:39:56;;;;;;;12.73;10.82;;;;;;;;;;5037338;28;20407;-89
2022/05/24 11:42:29;;;;;;;13.15;10.48;;;;;;;;;;5036122;28;20409;-89
2022/05/24 11:44:57;;;;;;;12.52;10.80;;;;;;;;;;5033795;28;20993;-89
2022/05/24 11:47:44;;;;;;;12.52;10.55;;;;;;;;;;5039249;28;20420;-88
2022/05/24 11:50:31;;;;;;;13.18;11.10;;;;;;;;;;5028476;28;20434;-87
2022/05/24 11:53:03;;;;;;;11.00;9.80;;;;;;;;;;5034026;28;20828;-87
2022/05/24 11:55:43;;;;;;;11.27;10.02;;;;;;;;;;5038383;28;20422;-87
2022/05/24 11:58:22;;;;;;;10.38;9.38;;;;;;;;;;5030571;28;20464;-87
2022/05/24 12:00:55;;;;;;;11.73;9.00;;;;;;;;;;5032034;28;20479;-88
2022/05/24 12:09:08;;;;;;;11.15;9.95;;;;;;;;;;4998262;28;20464;-89
2022/05/24 12:11:36;;;;;;;10.32;9.23;;;;;;;;;;5029637;28;20443;-85
2022/05/24 12:14:16;;;;;;;12.25;9.63;;;;;;;;;;5023725;28;20428;-89
2022/05/24 12:16:47;;;;;;;10.25;8.70;;;;;;;;;;5028892;28;20400;-88
2022/05/24 12:19:29;;;;;;;10.73;9.73;;;;;;;;;;5023131;28;20425;-89
2022/05/24 12:22:04;;;;;;;9.48;8.68;;;;;;;;;;5024844;28;20440;-88
2022/05/24 12:24:48;;;;;;;13.10;9.23;;;;;;;;;;5026592;28;20477;-89
2022/05/24 12:27:25;;;;;;;8.23;7.53;;;;;;;;;;5030847;28;20422;-88
2022/05/24 12:29:53;;;;;;;9.00;8.20;;;;;;;;;;5027202;28;20455;-89
2022/05/24 12:32:20;;;;;;;9.82;8.90;;;;;;;;;;5026769;28;20442;-88
2022/05/24 12:34:47;;;;;;;10.40;9.30;;;;;;;;;;5029033;28;20416;-88
2022/05/24 12:37:17;;;;;;;11.40;9.80;;;;;;;;;;5028335;28;20957;-88
2022/05/24 12:40:04;;;;;;;11.35;9.88;;;;;;;;;;5029454;28;20980;-89
2022/05/24 12:42:32;;;;;;;11.20;10.20;;;;;;;;;;5030382;28;20442;-88
2022/05/24 12:45:00;;;;;;;11.23;10.13;;;;;;;;;;5028462;28;20831;-87
2022/05/24 12:47:26;;;;;;;12.85;11.65;;;;;;;;;;5030808;28;20421;-88
2022/05/24 12:49:54;;;;;;;10.25;8.82;;;;;;;;;;5032473;28;20492;-88
2022/05/24 12:52:22;;;;;;;6.38;5.78;;;;;;;;;;5029595;28;20436;-89
2022/05/24 12:54:50;;;;;;;6.43;4.47;;;;;;;;;;5033552;28;20498;-89
2022/05/24 12:57:17;;;;;;;4.60;4.20;;;;;;;;;;5067275;23;20433;-84
2022/05/24 12:59:51;;;;;;;4.65;4.22;;;;;;;;;;5031885;28;20415;-82
2022/05/24 13:02:21;;;;;;;6.35;5.57;;;;;;;;;;5030103;28;20484;-83
2022/05/24 13:04:48;;;;;;;8.50;7.80;;;;;;;;;;5031084;28;20501;-84
2022/05/24 13:07:19;;;;;;;8.80;7.90;;;;;;;;;;5030691;28;20408;-84
2022/05/24 13:09:48;;;;;;;8.80;8.10;;;;;;;;;;5028099;28;20434;-83
2022/05/24 13:12:14;;;;;;;9.88;8.85;;;;;;;;;;5028730;28;20421;-83
2022/05/24 13:14:48;;;;;;;9.70;8.68;;;;;;;;;;5029098;28;20479;-82
2022/05/24 13:17:17;;;;;;;11.65;9.65;;;;;;;;;;5028324;28;20413;-83
2022/05/24 13:19:50;;;;;;;11.50;9.85;;;;;;;;;;5029446;28;20439;-82
2022/05/24 13:22:17;;;;;;;11.48;10.38;;;;;;;;;;5028311;28;20416;-82
2022/05/24 13:24:55;;;;;;;10.90;9.98;;;;;;;;;;5030494;28;20571;-83
2022/05/24 13:27:21;;;;;;;11.20;10.10;;;;;;;;;;5031325;28;20446;-82
2022/05/24 13:35:24;;;;;;;7.75;7.05;;;;;;;;;;5029102;28;20418;-84
2022/05/24 13:37:52;;;;;;;7.00;6.27;;;;;;;;;;5028669;28;20415;-85
2022/05/24 13:40:20;;;;;;;5.90;5.30;;;;;;;;;;5028905;28;20478;-83
2022/05/24 13:42:53;;;;;;;5.60;5.10;;;;;;;;;;5031663;28;20523;-83
2022/05/24 13:45:22;;;;;;;7.00;6.30;;;;;;;;;;5031630;28;20427;-83
2022/05/24 13:47:50;;;;;;;7.78;7.07;;;;;;;;;;5030599;28;20992;-83
2022/05/24 13:50:21;;;;;;;8.52;7.57;;;;;;;;;;5030001;28;20444;-83
2022/05/24 13:52:55;;;;;;;9.43;8.43;;;;;;;;;;5030090;28;20420;-82
2022/05/24 13:55:22;;;;;;;9.68;8.50;;;;;;;;;;5032235;28;20427;-84
2022/05/24 13:57:56;;;;;;;9.68;8.77;;;;;;;;;;5029844;28;20477;-84
2022/05/24 14:00:30;;;;;;;10.10;8.40;;;;;;;;;;5030368;28;20911;-84
2022/05/24 14:03:07;;;;;;;7.35;6.65;;;;;;;;;;5028961;28;20434;-84
2022/05/24 14:05:35;;;;;;;6.32;5.72;;;;;;;;;;5031893;28;20995;-82
2022/05/24 14:08:02;;;;;;;6.70;6.00;;;;;;;;;;5029788;28;20452;-82
2022/05/24 14:10:28;;;;;;;4.70;4.30;;;;;;;;;;5030339;28;20830;-83
2022/05/24 14:12:55;;;;;;;5.50;4.35;;;;;;;;;;5028947;28;20443;-85
2022/05/24 14:15:21;;;;;;;4.45;4.05;;;;;;;;;;5029466;28;20426;-84
2022/05/24 14:17:50;;;;;;;4.70;4.30;;;;;;;;;;5030592;28;20427;-84
2022/05/24 14:20:17;;;;;;;6.35;4.00;;;;;;;;;;5029612;28;20429;-83
2022/05/24 14:22:43;;;;;;;4.80;4.10;;;;;;;;;;5027788;28;20415;-84
2022/05/24 14:25:09;;;;;;;4.68;3.92;;;;;;;;;;5028795;28;20399;-85
2022/05/24 14:27:37;;;;;;;4.30;3.90;;;;;;;;;;5029850;28;20435;-84
2022/05/24 14:30:03;;;;;;;3.30;3.00;;;;;;;;;;5029827;28;20428;-83
2022/05/24 14:32:34;;;;;;;2.60;2.40;;;;;;;;;;5030793;28;20419;-84
2022/05/24 14:35:02;;;;;;;2.20;2.00;;;;;;;;;;5029979;28;20418;-84
2022/05/24 14:37:29;;;;;;;3.33;2.03;;;;;;;;;;5029990;28;20494;-83
2022/05/24 14:39:55;;;;;;;2.20;2.00;;;;;;;;;;5029452;28;20410;-82
2022/05/24 14:42:21;;;;;;;2.00;1.80;;;;;;;;;;5028981;28;20411;-84
2022/05/24 14:44:48;;;;;;;2.95;2.28;;;;;;;;;;5030773;28;20441;-84
2022/05/24 14:47:14;;;;;;;2.70;1.83;;;;;;;;;;5030037;28;20514;-83
2022/05/24 14:49:40;;;;;;;1.90;1.80;;;;;;;;;;5028879;28;20474;-84
2022/05/24 14:52:10;;;;;;;2.70;2.27;;;;;;;;;;5030047;28;20413;-85
2022/05/24 14:54:39;;;;;;;2.30;2.10;;;;;;;;;;5030656;28;20450;-84
2022/05/24 14:57:05;;;;;;;2.83;2.13;;;;;;;;;;5027712;28;20921;-83
2022/05/24 14:59:32;;;;;;;1.88;1.70;;;;;;;;;;5030547;28;20493;-84
2022/05/24 15:01:58;;;;;;;2.07;1.97;;;;;;;;;;5027569;28;20439;-82
2022/05/24 15:04:25;;;;;;;3.63;2.10;;;;;;;;;;5028916;28;20435;-82
2022/05/24 15:06:51;;;;;;;2.50;2.00;;;;;;;;;;5029006;28;20427;-82
2022/05/24 15:17:34;;;;;;;2.37;2.07;;;;;;;;;;5028053;28;20552;-82
2022/05/24 15:20:01;;;;;;;2.90;1.80;;;;;;;;;;5027571;28;20434;-83
2022/05/24 15:22:28;;;;;;;2.60;1.60;;;;;;;;;;5027484;28;20431;-82
2022/05/24 15:24:55;;;;;;;2.10;1.50;;;;;;;;;;5029424;28;20484;-81